Time;durP1;ratioP1;P1;durP2;ratioP2;P2;SDS_P1;SDS_P2;PMS_P1;PMS_P2;Temp;Humidity;BMP_temperature;BMP_pressure;BME280_temperature;BME280_humidity;BME280_pressure;Samples;Min_cycle;Max_cycle;Signal;HPM_P1;HPM_P2
2022/01/17 00:01:07;;;;;;;69.97;51.97;;;1.40;99.90;;;;;;5013690;28;20029;-75
2022/01/17 00:03:34;;;;;;;72.97;50.90;;;1.40;99.90;;;;;;5011417;28;20022;-75
2022/01/17 00:06:00;;;;;;;71.50;50.20;;;1.40;99.90;;;;;;5002904;28;20112;-75
2022/01/17 00:08:26;;;;;;;66.00;48.13;;;1.20;99.90;;;;;;4994024;28;20572;-75
2022/01/17 00:10:51;;;;;;;73.72;50.47;;;1.40;99.90;;;;;;5007030;28;20080;-74
2022/01/17 00:13:27;;;;;;;69.22;49.53;;;1.40;99.90;;;;;;5020596;28;20067;-73
2022/01/17 00:16:05;;;;;;;65.15;47.88;;;1.40;99.90;;;;;;5022066;28;20026;-73
2022/01/17 00:21:03;;;;;;;69.50;51.17;;;1.40;99.90;;;;;;5024413;28;20026;-74
2022/01/17 00:23:32;;;;;;;67.65;49.97;;;1.40;99.90;;;;;;5006500;28;20132;-74
2022/01/17 00:26:00;;;;;;;68.47;50.17;;;1.40;99.90;;;;;;5011088;28;20496;-74
2022/01/17 00:28:26;;;;;;;62.58;47.47;;;1.40;99.90;;;;;;4994081;28;20027;-74
2022/01/17 00:30:51;;;;;;;65.82;47.50;;;1.40;99.90;;;;;;5006511;28;20053;-74
2022/01/17 00:33:17;;;;;;;65.50;49.42;;;1.50;99.90;;;;;;5007308;28;20444;-75
2022/01/17 00:35:43;;;;;;;66.07;46.83;;;1.40;99.90;;;;;;4994203;28;20041;-75
2022/01/17 00:38:11;;;;;;;64.65;47.83;;;1.50;99.90;;;;;;5024950;28;20035;-76
2022/01/17 00:40:36;;;;;;;64.68;47.33;;;1.50;99.90;;;;;;5019250;28;20018;-75
2022/01/17 00:43:02;;;;;;;67.55;47.67;;;1.50;99.90;;;;;;5017903;28;20053;-75
2022/01/17 00:45:29;;;;;;;68.55;49.55;;;1.50;99.90;;;;;;5031093;28;20017;-75
2022/01/17 00:47:56;;;;;;;68.28;49.53;;;1.50;99.90;;;;;;5018540;28;20071;-75
2022/01/17 00:50:22;;;;;;;66.05;48.63;;;1.40;99.90;;;;;;5006689;28;20076;-74
2022/01/17 00:52:51;;;;;;;64.07;47.25;;;1.60;99.90;;;;;;5012422;28;20021;-74
2022/01/17 00:55:20;;;;;;;68.13;48.83;;;1.50;99.90;;;;;;4994019;28;20053;-75
2022/01/17 00:57:46;;;;;;;73.05;50.67;;;1.50;99.90;;;;;;5011521;28;20030;-75
2022/01/17 01:00:13;;;;;;;65.65;47.47;;;1.50;99.90;;;;;;5011286;28;20026;-75
2022/01/17 01:02:41;;;;;;;67.28;48.72;;;1.50;99.90;;;;;;5024848;28;20379;-76
2022/01/17 01:05:07;;;;;;;63.63;47.75;;;1.50;99.90;;;;;;5019829;28;20025;-76
2022/01/17 01:07:33;;;;;;;66.18;48.17;;;1.50;99.90;;;;;;5017908;28;20073;-76
2022/01/17 01:10:08;;;;;;;66.95;47.50;;;1.50;99.90;;;;;;5022784;28;20026;-76
2022/01/17 01:12:34;;;;;;;67.65;48.33;;;1.50;99.90;;;;;;5006972;28;20440;-75
2022/01/17 01:15:00;;;;;;;64.47;44.38;;;1.50;99.90;;;;;;5020659;28;20189;-75
2022/01/17 01:17:49;;;;;;;61.25;45.80;;;1.50;99.90;;;;;;5017994;28;20393;-74
2022/01/17 01:28:10;;;;;;;66.28;47.50;;;1.50;99.90;;;;;;5023954;28;20392;-75
2022/01/17 01:30:41;;;;;;;64.47;47.40;;;1.50;99.90;;;;;;5027977;28;20034;-75
2022/01/17 01:33:06;;;;;;;64.43;47.63;;;1.50;99.90;;;;;;5008874;28;20057;-76
2022/01/17 01:35:43;;;;;;;64.82;47.05;;;1.50;99.90;;;;;;5016355;28;20062;-74
2022/01/17 01:38:11;;;;;;;64.13;48.13;;;1.50;99.90;;;;;;5028926;28;20033;-75
2022/01/17 01:40:37;;;;;;;67.13;48.33;;;1.50;99.90;;;;;;5026208;28;20022;-74
2022/01/17 01:43:03;;;;;;;64.68;47.28;;;1.60;99.90;;;;;;5013547;28;20069;-76
2022/01/17 01:45:29;;;;;;;66.35;48.03;;;1.70;99.90;;;;;;5007758;28;20072;-75
2022/01/17 01:47:55;;;;;;;63.80;46.35;;;1.60;99.90;;;;;;5014098;28;20018;-76
2022/01/17 01:50:20;;;;;;;65.05;46.58;;;1.60;99.90;;;;;;5004091;28;20028;-75
2022/01/17 01:52:46;;;;;;;66.55;46.60;;;1.60;99.90;;;;;;5020414;28;20438;-76
2022/01/17 01:55:15;;;;;;;63.22;45.53;;;1.60;99.90;;;;;;5017307;28;20027;-75
2022/01/17 01:57:43;;;;;;;61.55;43.95;;;1.60;99.90;;;;;;5027517;28;20026;-75
2022/01/17 02:00:11;;;;;;;64.43;47.15;;;1.70;99.90;;;;;;5022271;28;20025;-74
2022/01/17 02:02:37;;;;;;;61.17;44.25;;;1.60;99.90;;;;;;5002762;28;20029;-74
2022/01/17 02:05:04;;;;;;;65.35;46.15;;;1.70;99.90;;;;;;5025159;28;20064;-74
2022/01/17 02:07:32;;;;;;;61.03;45.67;;;1.70;99.90;;;;;;4996558;28;20026;-76
2022/01/17 02:09:58;;;;;;;63.78;47.70;;;1.60;99.90;;;;;;5005612;28;20029;-75
2022/01/17 02:12:28;;;;;;;59.53;44.40;;;1.70;99.90;;;;;;5002864;28;20073;-75
2022/01/17 02:14:54;;;;;;;60.90;44.00;;;1.70;99.90;;;;;;5024275;28;20084;-77
2022/01/17 02:17:21;;;;;;;61.35;44.08;;;1.70;99.90;;;;;;5009464;28;20096;-76
2022/01/17 02:19:57;;;;;;;59.13;43.90;;;1.70;99.90;;;;;;5023548;28;20029;-75
2022/01/17 02:22:22;;;;;;;60.00;45.58;;;1.70;99.90;;;;;;4998534;28;20038;-76
2022/01/17 02:24:51;;;;;;;58.33;43.55;;;1.70;99.90;;;;;;5024721;28;20034;-75
2022/01/17 02:27:16;;;;;;;55.65;43.70;;;1.70;99.90;;;;;;4997747;28;20030;-77
2022/01/17 02:29:42;;;;;;;55.80;42.50;;;1.70;99.90;;;;;;5025960;28;20052;-77
2022/01/17 02:32:07;;;;;;;57.40;43.58;;;1.70;99.90;;;;;;5019338;28;20048;-74
2022/01/17 02:34:38;;;;;;;57.53;44.15;;;1.80;99.90;;;;;;5031605;28;20029;-75
2022/01/17 02:37:04;;;;;;;56.53;42.50;;;1.70;99.90;;;;;;5019703;28;20053;-74
2022/01/17 02:39:29;;;;;;;59.15;45.50;;;1.80;99.90;;;;;;5033005;28;20428;-73
2022/01/17 02:41:55;;;;;;;52.17;41.70;;;1.80;99.90;;;;;;5027801;28;20026;-73
2022/01/17 02:44:20;;;;;;;60.15;44.75;;;1.70;99.90;;;;;;5007150;28;20034;-74
2022/01/17 02:46:46;;;;;;;59.80;45.65;;;1.80;99.90;;;;;;5014912;28;20096;-73
2022/01/17 02:49:12;;;;;;;60.45;43.35;;;1.70;99.90;;;;;;5013349;28;20041;-73
2022/01/17 02:51:37;;;;;;;60.47;43.92;;;1.70;99.90;;;;;;5012899;28;20032;-73
2022/01/17 02:54:03;;;;;;;57.63;44.47;;;1.70;99.90;;;;;;5013138;28;20034;-73
2022/01/17 02:56:28;;;;;;;57.47;43.83;;;1.70;99.90;;;;;;5013067;28;20036;-73
2022/01/17 02:58:54;;;;;;;58.28;44.22;;;1.70;99.90;;;;;;5002765;28;20022;-73
2022/01/17 03:01:24;;;;;;;58.97;44.78;;;1.70;99.90;;;;;;5012742;28;20087;-73
2022/01/17 03:03:49;;;;;;;59.03;44.17;;;1.70;99.90;;;;;;5014072;28;20033;-74
2022/01/17 03:06:17;;;;;;;58.90;43.60;;;1.70;99.90;;;;;;4996422;28;20479;-73
2022/01/17 03:08:43;;;;;;;54.20;41.22;;;1.80;99.90;;;;;;5014010;28;20054;-73
2022/01/17 03:11:14;;;;;;;52.65;41.20;;;1.70;99.90;;;;;;4996342;28;20034;-74
2022/01/17 03:13:40;;;;;;;56.83;43.28;;;1.70;99.90;;;;;;5026414;28;20025;-74
2022/01/17 03:16:13;;;;;;;58.05;44.78;;;1.80;99.90;;;;;;5020531;28;20028;-77
2022/01/17 03:18:43;;;;;;;52.90;41.72;;;1.80;99.90;;;;;;5003514;28;20022;-78
2022/01/17 03:21:11;;;;;;;54.38;41.75;;;1.80;99.90;;;;;;5006661;28;20018;-77
2022/01/17 03:23:38;;;;;;;56.50;42.53;;;1.80;99.90;;;;;;5001511;28;20018;-77
2022/01/17 03:26:04;;;;;;;55.17;43.10;;;1.80;99.90;;;;;;5025755;28;20057;-77
2022/01/17 03:28:30;;;;;;;52.28;41.63;;;1.70;99.90;;;;;;5026724;28;20032;-76
2022/01/17 03:30:56;;;;;;;51.67;40.80;;;1.70;99.90;;;;;;5025862;28;20116;-76
2022/01/17 03:33:22;;;;;;;47.72;39.17;;;1.80;99.90;;;;;;5027290;28;20037;-76
2022/01/17 03:35:48;;;;;;;46.53;37.17;;;1.80;99.90;;;;;;4996895;28;20026;-76
2022/01/17 03:38:16;;;;;;;48.55;39.10;;;1.80;99.90;;;;;;5029037;28;20100;-76
2022/01/17 03:40:46;;;;;;;48.47;37.45;;;2.00;99.90;;;;;;5006561;28;20423;-77
2022/01/17 03:43:11;;;;;;;49.17;39.05;;;1.90;99.90;;;;;;5011107;28;20028;-75
2022/01/17 03:45:37;;;;;;;44.83;36.58;;;1.90;99.90;;;;;;5021808;28;20025;-76
2022/01/17 03:48:03;;;;;;;45.47;37.10;;;1.90;99.90;;;;;;5018932;28;20076;-75
2022/01/17 03:50:28;;;;;;;47.95;38.00;;;1.90;99.90;;;;;;5023560;28;20049;-75
2022/01/17 03:52:55;;;;;;;44.80;36.67;;;1.90;99.90;;;;;;5027575;28;20025;-76
2022/01/17 03:55:21;;;;;;;44.90;36.15;;;1.90;99.90;;;;;;5014272;28;20049;-76
2022/01/17 03:57:48;;;;;;;45.72;37.03;;;1.90;99.90;;;;;;5009503;28;20487;-76
2022/01/17 04:00:26;;;;;;;41.67;35.78;;;1.90;99.90;;;;;;5005001;28;20851;-74
2022/01/17 04:02:53;;;;;;;43.70;35.67;;;1.90;99.90;;;;;;5019403;28;20104;-75
2022/01/17 04:05:19;;;;;;;43.75;35.25;;;1.90;99.90;;;;;;5021277;28;20562;-75
2022/01/17 04:07:45;;;;;;;41.53;34.45;;;1.90;99.90;;;;;;5025842;28;20034;-75
2022/01/17 04:10:11;;;;;;;42.50;35.55;;;1.90;99.90;;;;;;5005022;28;20041;-75
2022/01/17 04:12:37;;;;;;;45.05;35.50;;;1.90;99.90;;;;;;4997362;28;20018;-75
2022/01/17 04:15:03;;;;;;;38.08;33.30;;;1.90;99.90;;;;;;5022903;28;20568;-76
2022/01/17 04:17:30;;;;;;;44.13;35.42;;;1.90;99.90;;;;;;5001227;28;20030;-75
2022/01/17 04:20:06;;;;;;;42.38;34.88;;;1.90;99.90;;;;;;5021537;28;20384;-75
2022/01/17 04:22:40;;;;;;;42.78;34.65;;;2.00;99.90;;;;;;5007797;28;20496;-74
2022/01/17 04:25:07;;;;;;;45.35;37.03;;;1.90;99.90;;;;;;5024674;28;20541;-76
2022/01/17 04:27:33;;;;;;;46.30;37.25;;;2.00;99.90;;;;;;5000703;28;20172;-76
2022/01/17 04:29:59;;;;;;;45.17;35.92;;;1.90;99.90;;;;;;5018334;28;20114;-76
2022/01/17 04:32:24;;;;;;;43.63;36.38;;;2.10;99.90;;;;;;5024872;28;20026;-76
2022/01/17 04:34:50;;;;;;;43.28;35.03;;;2.00;99.90;;;;;;5013112;28;20506;-75
2022/01/17 04:37:16;;;;;;;42.08;34.53;;;2.00;99.90;;;;;;5001356;28;20521;-75
2022/01/17 04:39:42;;;;;;;40.90;34.65;;;2.00;99.90;;;;;;5000885;28;20499;-75
2022/01/17 04:42:16;;;;;;;44.75;34.95;;;2.00;99.90;;;;;;5007073;28;20121;-77
2022/01/17 04:47:31;;;;;;;38.70;33.17;;;2.00;99.90;;;;;;5011981;28;20037;-77
2022/01/17 04:49:56;;;;;;;32.97;27.60;;;2.10;99.90;;;;;;5007001;28;20479;-75
2022/01/17 04:52:22;;;;;;;34.05;29.35;;;2.20;99.90;;;;;;5014434;28;20030;-76
2022/01/17 04:54:53;;;;;;;34.10;29.27;;;2.20;99.90;;;;;;5002457;28;20025;-77
2022/01/17 04:57:19;;;;;;;31.90;27.30;;;2.10;99.90;;;;;;5023059;28;20364;-76
2022/01/17 04:59:45;;;;;;;34.42;28.42;;;2.20;99.90;;;;;;5028435;28;20029;-76
2022/01/17 05:02:11;;;;;;;33.67;29.48;;;2.20;99.90;;;;;;5026851;28;20045;-76
2022/01/17 05:04:37;;;;;;;33.53;27.90;;;2.10;99.90;;;;;;5004021;28;20537;-77
2022/01/17 05:07:04;;;;;;;31.40;27.90;;;2.10;99.90;;;;;;5022829;28;20026;-76
2022/01/17 05:09:31;;;;;;;31.60;28.08;;;2.10;99.90;;;;;;5028454;28;20018;-75
2022/01/17 05:11:57;;;;;;;32.55;28.23;;;2.10;99.90;;;;;;5014870;28;20029;-74
2022/01/17 05:14:24;;;;;;;34.03;28.20;;;2.10;99.90;;;;;;5015010;28;20045;-75
2022/01/17 05:16:57;;;;;;;32.50;28.00;;;2.10;99.90;;;;;;5014946;28;20022;-75
2022/01/17 05:22:06;;;;;;;35.90;31.58;;;2.10;99.90;;;;;;5014793;28;20110;-75
2022/01/17 05:24:32;;;;;;;37.45;31.63;;;2.10;99.90;;;;;;5006445;28;20112;-75
2022/01/17 05:26:57;;;;;;;38.85;31.10;;;2.10;99.90;;;;;;5019083;28;20022;-76
2022/01/17 05:29:23;;;;;;;33.30;29.08;;;2.10;99.90;;;;;;4997164;28;20030;-76
2022/01/17 05:31:48;;;;;;;33.45;29.52;;;2.10;99.90;;;;;;5027841;28;20052;-75
2022/01/17 05:34:14;;;;;;;36.47;30.23;;;2.20;99.90;;;;;;5016346;28;20022;-75
2022/01/17 05:36:39;;;;;;;34.58;28.42;;;2.10;99.90;;;;;;4996941;28;20034;-75
2022/01/17 05:39:05;;;;;;;36.95;30.52;;;2.10;99.90;;;;;;5008120;28;20068;-75
2022/01/17 05:41:31;;;;;;;33.95;28.60;;;2.20;99.90;;;;;;5027568;28;20018;-76
2022/01/17 05:43:57;;;;;;;38.10;31.20;;;2.10;99.90;;;;;;5022517;28;20025;-76
2022/01/17 05:46:23;;;;;;;37.60;30.42;;;2.10;99.90;;;;;;5003257;28;20030;-75
2022/01/17 05:48:49;;;;;;;35.85;30.38;;;2.10;99.90;;;;;;5026138;28;20117;-76
2022/01/17 05:51:14;;;;;;;36.90;30.15;;;2.10;99.90;;;;;;4997569;28;20049;-76
2022/01/17 05:53:40;;;;;;;39.17;31.45;;;2.10;99.90;;;;;;5016371;28;20502;-76
2022/01/17 05:56:05;;;;;;;35.30;29.73;;;2.10;99.90;;;;;;5004978;28;20030;-76
2022/01/17 05:58:31;;;;;;;37.28;30.33;;;2.10;99.90;;;;;;5027822;28;20034;-76
2022/01/17 06:00:56;;;;;;;38.45;30.25;;;2.10;99.90;;;;;;5009466;28;20364;-76
2022/01/17 06:03:22;;;;;;;39.55;33.15;;;2.20;99.90;;;;;;5003807;28;20037;-75
2022/01/17 06:05:47;;;;;;;39.20;31.15;;;2.10;99.90;;;;;;5002657;28;20395;-76
2022/01/17 06:08:13;;;;;;;39.67;31.48;;;2.10;99.90;;;;;;5026215;28;20026;-76
2022/01/17 06:10:38;;;;;;;40.20;31.60;;;2.30;99.90;;;;;;5027133;28;20491;-77
2022/01/17 06:13:04;;;;;;;39.60;31.38;;;2.10;99.90;;;;;;5003195;28;20510;-76
2022/01/17 06:15:30;;;;;;;39.80;32.53;;;2.10;99.90;;;;;;5002640;28;20057;-75
2022/01/17 06:17:56;;;;;;;41.17;32.67;;;2.10;99.90;;;;;;5009000;28;20144;-75
2022/01/17 06:20:21;;;;;;;39.22;31.20;;;2.10;99.90;;;;;;5027429;28;20017;-75
2022/01/17 06:22:47;;;;;;;40.75;32.90;;;2.10;99.90;;;;;;5020221;28;20048;-75
2022/01/17 06:25:12;;;;;;;35.40;29.45;;;2.20;99.90;;;;;;5020467;28;20148;-76
2022/01/17 06:27:38;;;;;;;36.50;29.65;;;2.20;99.90;;;;;;5026813;28;20026;-75
2022/01/17 06:30:05;;;;;;;56.22;46.58;;;2.20;99.90;;;;;;5026429;28;20030;-76
2022/01/17 06:32:31;;;;;;;70.40;51.45;;;2.20;99.90;;;;;;5006568;28;20095;-76
2022/01/17 06:34:57;;;;;;;127.22;103.57;;;2.20;99.90;;;;;;5002522;28;20471;-76
2022/01/17 06:37:23;;;;;;;51.17;43.65;;;2.20;99.90;;;;;;5021345;28;20033;-75
2022/01/17 06:39:48;;;;;;;67.43;53.80;;;2.20;99.90;;;;;;5019634;28;20033;-75
2022/01/17 06:42:14;;;;;;;41.80;35.28;;;2.20;99.90;;;;;;5032938;28;20033;-75
2022/01/17 06:44:39;;;;;;;40.17;31.98;;;2.20;99.90;;;;;;5002156;28;20032;-74
2022/01/17 06:47:05;;;;;;;39.35;31.50;;;2.20;99.90;;;;;;5025632;28;20415;-74
2022/01/17 06:49:31;;;;;;;46.90;35.65;;;2.20;99.90;;;;;;5026594;28;20057;-72
2022/01/17 06:51:56;;;;;;;44.92;36.90;;;2.20;99.90;;;;;;5012856;28;20041;-75
2022/01/17 06:54:22;;;;;;;47.33;40.33;;;2.20;99.90;;;;;;5026324;28;20061;-74
2022/01/17 06:56:47;;;;;;;48.35;36.00;;;2.20;99.90;;;;;;5020102;28;20029;-74
2022/01/17 06:59:14;;;;;;;47.33;36.40;;;2.20;99.90;;;;;;5019113;28;20041;-74
2022/01/17 07:01:41;;;;;;;47.83;35.97;;;2.10;99.90;;;;;;5015138;28;20026;-74
2022/01/17 07:04:08;;;;;;;42.35;32.90;;;2.10;99.90;;;;;;5012829;28;20029;-75
2022/01/17 07:06:34;;;;;;;44.67;33.50;;;2.10;99.90;;;;;;5006800;28;20061;-75
2022/01/17 07:09:00;;;;;;;39.85;31.13;;;2.30;99.90;;;;;;5001429;28;20034;-75
2022/01/17 07:11:26;;;;;;;38.70;30.65;;;2.10;99.90;;;;;;4994823;28;20037;-75
2022/01/17 07:13:52;;;;;;;33.53;28.27;;;2.20;99.90;;;;;;5014942;28;20026;-75
2022/01/17 07:16:18;;;;;;;40.40;31.92;;;2.20;99.90;;;;;;5012841;28;20027;-75
2022/01/17 07:18:44;;;;;;;38.17;29.42;;;2.20;99.90;;;;;;5025818;28;20021;-76
2022/01/17 07:21:09;;;;;;;37.15;28.85;;;2.40;99.90;;;;;;5012578;28;20037;-76
2022/01/17 07:23:35;;;;;;;35.53;28.40;;;2.40;99.90;;;;;;5012608;28;20529;-76
2022/01/17 07:26:00;;;;;;;39.38;31.08;;;2.20;99.90;;;;;;5019419;28;20025;-75
2022/01/17 07:28:26;;;;;;;42.03;31.75;;;2.30;99.90;;;;;;5019106;28;20400;-76
2022/01/17 07:30:52;;;;;;;37.75;28.83;;;2.30;99.90;;;;;;5001039;28;20060;-76
2022/01/17 07:33:18;;;;;;;38.63;29.60;;;2.30;99.90;;;;;;5018998;28;20026;-75
2022/01/17 07:35:45;;;;;;;31.75;26.30;;;2.40;99.90;;;;;;5012514;28;20483;-74
2022/01/17 07:38:11;;;;;;;38.65;29.90;;;2.30;99.90;;;;;;5013316;28;20033;-75
2022/01/17 07:40:37;;;;;;;34.40;27.45;;;2.30;99.90;;;;;;5006407;28;20029;-74
2022/01/17 07:43:02;;;;;;;41.17;30.05;;;2.30;99.90;;;;;;5026368;28;20068;-75
2022/01/17 07:45:30;;;;;;;33.65;27.15;;;2.30;99.90;;;;;;5024493;28;20014;-74
2022/01/17 07:50:28;;;;;;;37.40;27.52;;;2.30;99.90;;;;;;5027481;28;20022;-77
2022/01/17 07:52:54;;;;;;;38.38;27.27;;;2.40;99.90;;;;;;5001399;28;20048;-76
2022/01/17 07:55:21;;;;;;;34.80;26.95;;;2.40;99.90;;;;;;5028181;28;20029;-75
2022/01/17 07:57:47;;;;;;;33.45;26.52;;;2.40;99.90;;;;;;5016309;28;20499;-75
2022/01/17 08:00:20;;;;;;;35.35;27.48;;;2.40;99.90;;;;;;5002755;28;20048;-75
2022/01/17 08:02:47;;;;;;;31.75;26.13;;;2.40;99.90;;;;;;5001033;28;20025;-74
2022/01/17 08:05:14;;;;;;;33.92;27.15;;;2.50;99.90;;;;;;5022021;28;20075;-75
2022/01/17 08:07:41;;;;;;;36.47;27.90;;;2.30;99.90;;;;;;5025252;28;20472;-75
2022/01/17 08:10:12;;;;;;;34.70;25.55;;;2.40;99.90;;;;;;5022165;28;20028;-75
2022/01/17 08:12:41;;;;;;;34.70;27.27;;;2.40;99.90;;;;;;5000580;28;20037;-74
2022/01/17 08:15:08;;;;;;;34.55;27.15;;;2.40;99.90;;;;;;5020366;28;20089;-74
2022/01/17 08:17:34;;;;;;;31.90;26.58;;;2.40;99.90;;;;;;5024756;28;20100;-75
2022/01/17 08:19:59;;;;;;;33.72;27.15;;;2.40;99.90;;;;;;5022954;28;20160;-74
2022/01/17 08:22:25;;;;;;;35.00;26.30;;;2.40;99.90;;;;;;5017881;28;20025;-74
2022/01/17 08:24:50;;;;;;;33.00;26.27;;;2.40;99.90;;;;;;5001937;28;20049;-75
2022/01/17 08:27:17;;;;;;;39.53;27.70;;;2.40;99.90;;;;;;5010541;28;20378;-75
2022/01/17 08:29:42;;;;;;;34.38;25.67;;;2.50;99.90;;;;;;5015769;28;20026;-74
2022/01/17 08:32:08;;;;;;;35.80;26.17;;;2.50;99.90;;;;;;4997603;28;20103;-74
2022/01/17 08:34:33;;;;;;;36.10;27.13;;;2.50;99.90;;;;;;5017180;28;20034;-74
2022/01/17 08:37:00;;;;;;;34.75;28.10;;;2.50;99.90;;;;;;5020327;28;20037;-75
2022/01/17 08:39:26;;;;;;;34.53;27.25;;;2.50;99.90;;;;;;5024047;28;20026;-75
2022/01/17 08:41:53;;;;;;;34.47;26.00;;;2.40;99.90;;;;;;4998674;28;20057;-75
2022/01/17 08:44:19;;;;;;;34.60;27.10;;;2.50;99.90;;;;;;5015586;28;20371;-75
2022/01/17 08:46:46;;;;;;;35.15;27.83;;;2.40;99.90;;;;;;5017768;28;20134;-76
2022/01/17 08:49:12;;;;;;;35.42;26.30;;;2.50;99.90;;;;;;5015302;28;20407;-75
2022/01/17 08:51:38;;;;;;;33.65;26.00;;;2.50;99.90;;;;;;5015023;28;20026;-75
2022/01/17 08:54:04;;;;;;;33.30;25.75;;;2.50;99.90;;;;;;5016653;28;20705;-75
2022/01/17 08:56:31;;;;;;;32.50;26.10;;;2.60;99.90;;;;;;4997472;28;20022;-75
2022/01/17 08:58:58;;;;;;;33.45;25.80;;;2.50;99.90;;;;;;5017375;28;20030;-74
2022/01/17 09:01:24;;;;;;;32.72;26.48;;;2.50;99.90;;;;;;5015482;28;20384;-76
2022/01/17 09:03:50;;;;;;;33.17;26.60;;;2.60;99.90;;;;;;4997721;28;20025;-74
2022/01/17 09:06:16;;;;;;;32.13;24.83;;;2.70;99.90;;;;;;5003839;28;20025;-75
2022/01/17 09:08:42;;;;;;;31.52;24.70;;;2.70;99.90;;;;;;4997367;28;20022;-74
2022/01/17 09:11:08;;;;;;;33.17;25.23;;;2.60;99.90;;;;;;5017557;28;20034;-75
2022/01/17 09:13:33;;;;;;;28.58;22.90;;;2.70;99.90;;;;;;5014597;28;20080;-75
2022/01/17 09:15:59;;;;;;;26.80;22.08;;;2.80;99.90;;;;;;4997848;28;20029;-74
2022/01/17 09:18:25;;;;;;;26.33;21.90;;;2.80;99.90;;;;;;5022181;28;20073;-75
2022/01/17 09:20:51;;;;;;;28.73;23.23;;;2.90;99.90;;;;;;5016281;28;20404;-75
2022/01/17 09:23:17;;;;;;;28.10;21.25;;;2.90;99.90;;;;;;5014822;28;20018;-75
2022/01/17 09:25:43;;;;;;;23.95;19.85;;;2.90;99.90;;;;;;5005971;28;20047;-75
2022/01/17 09:28:10;;;;;;;26.65;20.40;;;2.90;99.90;;;;;;4999291;28;20029;-75
2022/01/17 09:30:35;;;;;;;26.02;21.83;;;3.10;99.90;;;;;;5019943;28;20029;-75
2022/01/17 09:33:01;;;;;;;25.88;20.98;;;2.90;99.90;;;;;;5004453;28;20516;-75
2022/01/17 09:35:27;;;;;;;27.02;20.33;;;3.00;99.90;;;;;;4998956;28;20022;-77
2022/01/17 09:37:53;;;;;;;24.20;19.20;;;3.00;99.90;;;;;;5017506;28;20057;-75
2022/01/17 09:40:19;;;;;;;24.52;20.30;;;3.10;99.90;;;;;;5015895;28;20057;-75
2022/01/17 09:42:45;;;;;;;25.13;18.75;;;3.10;99.90;;;;;;4996882;28;20025;-75
2022/01/17 09:45:14;;;;;;;24.45;18.60;;;3.10;99.90;;;;;;5017297;28;20113;-76
2022/01/17 09:47:43;;;;;;;23.95;19.00;;;3.10;99.90;;;;;;5002573;28;20017;-75
2022/01/17 09:50:13;;;;;;;23.30;18.48;;;3.20;99.90;;;;;;4999878;28;20108;-75
2022/01/17 09:52:44;;;;;;;24.10;18.48;;;3.20;99.90;;;;;;5003254;28;20497;-76
2022/01/17 09:55:12;;;;;;;24.58;19.48;;;3.10;99.90;;;;;;4996466;28;20506;-76
2022/01/17 09:57:49;;;;;;;26.20;19.10;;;3.10;99.90;;;;;;5014882;28;20033;-74
2022/01/17 10:00:17;;;;;;;22.52;17.92;;;3.10;99.90;;;;;;4996213;28;20514;-75
2022/01/17 10:02:43;;;;;;;23.73;17.73;;;3.10;99.90;;;;;;5014691;28;20060;-74
2022/01/17 10:05:10;;;;;;;25.08;18.17;;;3.20;99.90;;;;;;4996249;28;20053;-75
2022/01/17 10:07:56;;;;;;;22.00;17.27;;;3.10;99.90;;;;;;4996234;28;20370;-75
2022/01/17 10:10:50;;;;;;;21.17;17.17;;;3.10;99.90;;;;;;4996719;28;20018;-77
2022/01/17 10:13:29;;;;;;;22.00;16.25;;;3.20;99.90;;;;;;5011433;28;20526;-75
2022/01/17 10:16:18;;;;;;;24.08;16.67;;;3.20;99.90;;;;;;5014145;28;20037;-75
2022/01/17 10:18:56;;;;;;;18.88;15.73;;;3.10;99.90;;;;;;5014251;28;20113;-76
2022/01/17 10:21:44;;;;;;;20.45;16.08;;;3.20;99.90;;;;;;4992882;28;20068;-75
2022/01/17 10:29:55;;;;;;;19.63;15.55;;;3.20;99.90;;;;;;5018343;28;20034;-75
2022/01/17 10:34:57;;;;;;;19.73;13.32;;;3.30;99.90;;;;;;5013284;28;20026;-74
2022/01/17 10:37:26;;;;;;;18.63;14.23;;;3.20;99.90;;;;;;4999343;28;20018;-74
2022/01/17 10:40:12;;;;;;;19.27;14.00;;;3.30;99.90;;;;;;5015085;28;20467;-75
2022/01/17 10:42:42;;;;;;;18.67;13.85;;;3.30;99.90;;;;;;5012942;28;20060;-76
2022/01/17 10:45:10;;;;;;;17.55;13.93;;;3.50;99.90;;;;;;5006402;28;20087;-76
2022/01/17 10:47:39;;;;;;;17.25;13.65;;;3.40;99.90;;;;;;5013153;28;20495;-75
2022/01/17 10:50:09;;;;;;;17.60;13.98;;;3.40;99.90;;;;;;5012750;28;20061;-75
2022/01/17 10:52:44;;;;;;;18.70;14.10;;;3.40;99.90;;;;;;5025691;28;20025;-76
2022/01/17 10:55:21;;;;;;;17.40;14.70;;;3.40;99.90;;;;;;5017527;28;20032;-75
2022/01/17 10:57:51;;;;;;;15.45;13.80;;;3.40;99.90;;;;;;4999123;28;20033;-76
2022/01/17 11:00:20;;;;;;;18.20;13.40;;;3.40;99.90;;;;;;4979873;28;20022;-76
2022/01/17 11:02:50;;;;;;;16.40;13.30;;;3.40;99.90;;;;;;4999892;28;20150;-76
2022/01/17 11:05:17;;;;;;;18.15;14.57;;;3.40;99.90;;;;;;5011635;28;20010;-75
2022/01/17 11:07:45;;;;;;;17.27;12.75;;;3.40;99.90;;;;;;5012792;28;20026;-75
2022/01/17 11:10:24;;;;;;;15.00;12.35;;;3.40;99.90;;;;;;5000994;28;20026;-75
2022/01/17 11:12:51;;;;;;;18.58;11.77;;;3.50;99.90;;;;;;5012205;28;20049;-75
2022/01/17 11:15:19;;;;;;;14.07;12.25;;;3.50;99.90;;;;;;5013748;28;20037;-75
2022/01/17 11:17:50;;;;;;;17.23;11.93;;;3.60;99.90;;;;;;5018635;28;20044;-77
2022/01/17 11:20:18;;;;;;;15.95;12.00;;;3.50;99.90;;;;;;5012123;28;20487;-75
2022/01/17 11:22:45;;;;;;;15.15;11.05;;;3.50;99.90;;;;;;5012761;28;20392;-77
2022/01/17 11:25:21;;;;;;;15.75;12.88;;;3.50;99.90;;;;;;5002702;28;20369;-77
2022/01/17 11:27:47;;;;;;;19.15;12.90;;;3.50;99.90;;;;;;5016763;28;20026;-76
2022/01/17 11:30:13;;;;;;;15.95;13.02;;;3.60;99.90;;;;;;5020055;28;20084;-76
2022/01/17 11:32:39;;;;;;;18.23;13.00;;;3.60;99.90;;;;;;4994754;28;20550;-77
2022/01/17 11:35:06;;;;;;;18.05;13.90;;;3.50;99.90;;;;;;5020244;28;20029;-75
2022/01/17 11:37:39;;;;;;;17.38;12.93;;;3.60;99.90;;;;;;4994187;28;20018;-75
2022/01/17 11:40:09;;;;;;;18.77;13.57;;;3.60;99.90;;;;;;5012744;28;20028;-75
2022/01/17 11:42:45;;;;;;;16.50;12.48;;;3.60;99.90;;;;;;5011480;28;20018;-75
2022/01/17 11:45:22;;;;;;;16.55;12.75;;;3.60;99.90;;;;;;5007990;28;20021;-75
2022/01/17 11:47:55;;;;;;;19.05;13.07;;;3.60;99.90;;;;;;5003637;28;20022;-75
2022/01/17 11:50:30;;;;;;;17.65;12.70;;;3.70;99.90;;;;;;5010154;28;20026;-75
2022/01/17 11:53:17;;;;;;;16.02;12.73;;;3.70;99.90;;;;;;5005082;28;20053;-76
2022/01/17 11:55:45;;;;;;;16.25;11.68;;;3.70;99.90;;;;;;4982175;28;20049;-75
2022/01/17 11:58:31;;;;;;;17.77;12.80;;;3.80;99.90;;;;;;5019992;28;20036;-76
2022/01/17 12:00:56;;;;;;;;;;;3.70;99.90;;;;;;5017403;28;20683;-76
2022/01/17 12:03:27;;;;;;;17.57;12.23;;;3.70;99.90;;;;;;5003185;28;19996;-76
2022/01/17 12:06:02;;;;;;;13.98;11.13;;;3.70;99.90;;;;;;4999527;28;20025;-76
2022/01/17 12:08:29;;;;;;;16.63;12.05;;;3.80;99.90;;;;;;5016982;28;20108;-76
2022/01/17 12:11:03;;;;;;;16.83;11.52;;;3.80;99.90;;;;;;5011839;28;20030;-76
2022/01/17 12:13:41;;;;;;;14.23;11.10;;;3.80;99.90;;;;;;5006204;28;20635;-76
2022/01/17 12:16:22;;;;;;;14.10;11.93;;;3.80;99.90;;;;;;4993907;28;20084;-77
2022/01/17 12:18:58;;;;;;;13.55;11.75;;;3.70;99.90;;;;;;5002044;28;20029;-76
2022/01/17 12:21:32;;;;;;;15.57;11.48;;;3.80;99.90;;;;;;5004310;28;20502;-75
2022/01/17 12:24:20;;;;;;;14.13;10.82;;;3.80;99.90;;;;;;5022512;28;20506;-75
2022/01/17 12:26:56;;;;;;;14.65;11.65;;;3.70;99.90;;;;;;4998158;28;20109;-75
2022/01/17 12:29:36;;;;;;;;;;;3.80;99.90;;;;;;5004961;28;20391;-76
2022/01/17 12:32:02;;;;;;;14.30;12.45;;;3.70;99.90;;;;;;5010406;28;20446;-77
2022/01/17 12:34:28;;;;;;;17.38;12.88;;;3.70;99.90;;;;;;5014775;28;20487;-77
2022/01/17 12:36:58;;;;;;;16.67;13.57;;;3.70;99.90;;;;;;5005425;28;20040;-76
2022/01/17 12:39:28;;;;;;;18.67;13.85;;;3.60;99.90;;;;;;5004462;28;20848;-76
2022/01/17 12:42:03;;;;;;;18.52;13.30;;;3.60;99.90;;;;;;5012959;28;20041;-78
2022/01/17 12:44:32;;;;;;;20.67;14.57;;;3.60;99.90;;;;;;5021372;28;20480;-77
2022/01/17 12:47:00;;;;;;;19.38;14.00;;;3.60;99.90;;;;;;5008274;28;20123;-77
2022/01/17 12:49:27;;;;;;;20.02;14.43;;;3.50;99.90;;;;;;5004995;28;20041;-77
2022/01/17 12:51:56;;;;;;;19.48;15.00;;;3.50;99.90;;;;;;5013960;28;20112;-76
2022/01/17 12:54:25;;;;;;;16.83;13.85;;;3.40;99.90;;;;;;5002948;28;20041;-76
2022/01/17 12:56:54;;;;;;;18.67;14.80;;;3.50;99.90;;;;;;5017758;28;20026;-76
2022/01/17 12:59:21;;;;;;;19.65;14.80;;;3.50;99.90;;;;;;5011000;28;20030;-76
2022/01/17 13:01:52;;;;;;;19.38;15.27;;;3.50;99.90;;;;;;5016065;28;20021;-76
2022/01/17 13:04:18;;;;;;;20.20;14.65;;;3.50;99.90;;;;;;5006813;28;20503;-76
2022/01/17 13:06:47;;;;;;;16.40;13.32;;;3.50;99.90;;;;;;5010276;28;20026;-76
2022/01/17 13:09:36;;;;;;;18.27;14.25;;;3.60;99.90;;;;;;5012339;28;20029;-75